Shtandart — UAEM — position and weather

sailwx.info

Track history (hours):
 
Tides and Currents Weather Stations Pressure Air Temp Water Temp Dewpoint Dewpoint Depression Visibility Wind Speed Wind Dir Waves Ship Positions

Shtandart

Re-creation of early 1700's Russian naval frigate.

Last reported at 2017-Sep-22 02:00 UTC. Time now 2017-Sep-22 17:02 UTC.
Position N 49°25' E 000°14'.

Length 34 m; draft 3 m.

Type: Sailing vessel. MMSI: 273452840.

Date/timePositionNaut miles runAvg speedWind from/ knotsBaromVisibWave heightAir tempDewpointWater temp
2017-Sep-22 02:00N 49°25' E 000°14'0 0.0
2017-Sep-22 01:30N 49°25' E 000°14'0 0.0
2017-Sep-22 01:00N 49°25' E 000°14'0 0.0
2017-Sep-22 00:30N 49°25' E 000°14'0 0.0
2017-Sep-22 00:00N 49°25' E 000°14'0 0.0
2017-Sep-21 23:30N 49°25' E 000°14'0 0.0
2017-Sep-21 23:00N 49°25' E 000°14'0 0.0
2017-Sep-21 22:30N 49°25' E 000°14'0 0.0
2017-Sep-21 22:00N 49°25' E 000°14'1 2.4
2017-Sep-21 21:30N 49°26' E 000°13'3 6.0
2017-Sep-21 21:00N 49°26' E 000°08'3 5.8
2017-Sep-21 20:30N 49°27' E 000°04'2 4.7
2017-Sep-21 20:00N 49°25' E 000°01'1 1.2
2017-Sep-21 19:28N 49°25' E 000°01'0 0.1
2017-Sep-21 18:58N 49°25' E 000°01'0 0.1
2017-Sep-21 18:28N 49°25' E 000°01'0 0.2
2017-Sep-21 17:58N 49°25' E 000°01'0 0.0
2017-Sep-21 17:28N 49°25' E 000°01'0 0.0
2017-Sep-21 16:58N 49°25' E 000°01'0 0.1
2017-Sep-21 16:28N 49°25' E 000°01'0 0.1
2017-Sep-21 15:58N 49°25' E 000°01'0 0.0
2017-Sep-21 15:28N 49°25' E 000°01'0 0.1
2017-Sep-21 14:58N 49°25' E 000°01'0 0.0
2017-Sep-21 14:28N 49°25' E 000°01'0 0.0
2017-Sep-21 13:58N 49°25' E 000°01'0 0.0
2017-Sep-21 13:28N 49°25' E 000°01'0 0.0
2017-Sep-21 12:58N 49°25' E 000°01'0 0.0
2017-Sep-21 12:28N 49°25' E 000°01'0 0.0
2017-Sep-21 11:58N 49°25' E 000°01'0 0.0
2017-Sep-21 11:28N 49°25' E 000°01'0 0.1
2017-Sep-21 11:00N 49°25' E 000°01'2 3.7
2017-Sep-21 10:30N 49°26' W 000°01'3 5.2
2017-Sep-21 10:00N 49°28' W 000°04'2 4.2
2017-Sep-21 09:30N 49°29' W 000°06'3 6.3
2017-Sep-21 09:00N 49°32' W 000°09'36 4.6
2017-Sep-21 01:11N 49°42' W 001°02'0 1.7
2017-Sep-21 00:55N 49°42' W 001°03'1 1.5
2017-Sep-21 00:25N 49°42' W 001°04'1 2.6
2017-Sep-21 00:00N 49°43' W 001°05'2 3.4
2017-Sep-20 23:30N 49°44' W 001°08'2 4.7
2017-Sep-20 23:00N 49°44' W 001°11'3 6.4
2017-Sep-20 22:30N 49°46' W 001°16'3 6.8
2017-Sep-20 22:00N 49°47' W 001°21'3 6.8
2017-Sep-20 21:31N 49°47' W 001°26'3 5.9
2017-Sep-20 21:00N 49°47' W 001°30'4 7.6
2017-Sep-20 20:30N 49°48' W 001°36'4 8.4
2017-Sep-20 20:00N 49°49' W 001°43'4 7.3
2017-Sep-20 19:30N 49°49' W 001°48'4 8.4
2017-Sep-20 19:00N 49°49' W 001°55'19 7.3
2017-Sep-20 16:22N 49°45' W 002°24'2 4.6
2017-Sep-20 15:55N 49°44' W 002°27'1 2.4
2017-Sep-20 15:24N 49°43' W 002°28'3 2.1
2017-Sep-20 13:53N 49°42' W 002°33'7 3.7
2017-Sep-20 12:00N 49°38' W 002°42'11 5.4
2017-Sep-20 10:00N 49°32' W 002°55'5 6.2
2017-Sep-20 09:16N 49°29' W 003°00'2 5.8
2017-Sep-20 08:58N 49°28' W 003°02'3 5.9
2017-Sep-20 08:29N 49°26' W 003°06'3 6.0
2017-Sep-20 08:00N 49°24' W 003°09'3 6.0
2017-Sep-20 07:27N 49°22' W 003°13'3 6.2
2017-Sep-20 07:00N 49°21' W 003°17'3 6.6
2017-Sep-20 06:30N 49°19' W 003°21'4 6.3
2017-Sep-20 05:56N 49°17' W 003°26'3 6.3
2017-Sep-20 05:30N 49°15' W 003°29'3 6.4
2017-Sep-20 05:00N 49°14' W 003°33'4 6.5
2017-Sep-20 04:28N 49°12' W 003°38'3 6.6
2017-Sep-20 03:56N 49°10' W 003°42'9 7.0
2017-Sep-20 02:36N 49°05' W 003°55'1 6.6
2017-Sep-20 02:30N 49°05' W 003°56'4 5.8
2017-Sep-20 01:43N 49°03' W 004°01'2 5.1
2017-Sep-20 01:25N 49°02' W 004°03'18 3.1
2017-Sep-19 19:35N 48°51' W 004°26'0 2.6
2017-Sep-19 19:24N 48°51' W 004°27'1 2.8
2017-Sep-19 19:00N 48°50' W 004°28'2 3.3
2017-Sep-19 18:29N 48°49' W 004°30'2 3.5
2017-Sep-19 18:00N 48°48' W 004°32'2 4.2
2017-Sep-19 17:29N 48°47' W 004°35'2 4.8
2017-Sep-19 17:00N 48°45' W 004°37'2 4.5
2017-Sep-19 16:30N 48°44' W 004°40'2 4.8
2017-Sep-19 16:01N 48°42' W 004°42'2 4.8
2017-Sep-19 15:30N 48°40' W 004°44'2 4.7
2017-Sep-19 15:00N 48°38' W 004°47'3 5.2
2017-Sep-19 14:30N 48°36' W 004°49'3 6.1
2017-Sep-19 14:00N 48°33' W 004°51'4 7.0
2017-Sep-19 13:30N 48°30' W 004°52'3 5.3
2017-Sep-19 13:00N 48°27' W 004°51'3 6.1
2017-Sep-19 12:30N 48°24' W 004°49'3 6.8
2017-Sep-19 12:00N 48°21' W 004°49'3 6.7
2017-Sep-19 11:30N 48°18' W 004°48'2 5.0
2017-Sep-19 11:01N 48°15' W 004°48'2 5.0
2017-Sep-19 10:31N 48°13' W 004°48'3 5.0
2017-Sep-19 10:01N 48°10' W 004°47'3 5.0
2017-Sep-19 09:30N 48°08' W 004°47'2 4.9
2017-Sep-19 09:00N 48°05' W 004°47'2 4.6
2017-Sep-19 08:31N 48°03' W 004°46'2 3.7
2017-Sep-19 08:00N 48°01' W 004°46'2 4.2
2017-Sep-19 07:30N 47°60' W 004°43'2 4.1
2017-Sep-19 07:00N 47°58' W 004°41'2 3.9
2017-Sep-19 06:30N 47°57' W 004°39'2 3.6
2017-Sep-19 06:00N 47°55' W 004°38'2 3.5
2017-Sep-19 05:30N 47°54' W 004°36'2 3.4
2017-Sep-19 05:00N 47°53' W 004°34'2 3.2
2017-Sep-19 04:30N 47°52' W 004°33'2 3.1
2017-Sep-19 03:59N 47°50' W 004°31'1 3.0
2017-Sep-19 03:30N 47°49' W 004°30'12 2.9
2017-Sep-18 23:29N 47°42' W 004°17'2 3.7
2017-Sep-18 23:00N 47°41' W 004°15'3 3.4
2017-Sep-18 22:08N 47°40' W 004°11'1 3.4
2017-Sep-18 21:52N 47°39' W 004°09'1 3.3
2017-Sep-18 21:30N 47°39' W 004°08'2 3.1
2017-Sep-18 20:54N 47°38' W 004°05'1 3.0
2017-Sep-18 20:30N 47°38' W 004°03'2 3.8
2017-Sep-18 20:00N 47°37' W 004°01'2 4.2
2017-Sep-18 19:30N 47°36' W 003°58'2 4.5
2017-Sep-18 19:00N 47°36' W 003°55'2 4.3
2017-Sep-18 18:30N 47°35' W 003°52'2 3.8
2017-Sep-18 18:00N 47°35' W 003°49'2 4.3
2017-Sep-18 17:30N 47°34' W 003°46'2 3.8
2017-Sep-18 17:01N 47°32' W 003°45'2 3.4
2017-Sep-18 16:30N 47°31' W 003°43'2 3.5
2017-Sep-18 15:54N 47°29' W 003°42'1 3.6
2017-Sep-18 15:30N 47°28' W 003°40'2 3.3
2017-Sep-18 15:00N 47°26' W 003°39'2 3.7
2017-Sep-18 14:30N 47°25' W 003°38'2 3.8
2017-Sep-18 14:00N 47°23' W 003°36'1 2.9
2017-Sep-18 13:30N 47°22' W 003°35'2 3.5
2017-Sep-18 13:00N 47°21' W 003°33'2 3.6
2017-Sep-18 12:30N 47°20' W 003°31'2 3.6
2017-Sep-18 12:00N 47°18' W 003°29'2 3.9
2017-Sep-18 11:30N 47°17' W 003°27'2 4.1
2017-Sep-18 11:00N 47°16' W 003°25'2 2.9
2017-Sep-18 10:29N 47°15' W 003°23'1 1.8
2017-Sep-18 09:57N 47°15' W 003°21'1 2.5
2017-Sep-18 09:30N 47°15' W 003°20'1 2.4
2017-Sep-18 08:58N 47°15' W 003°18'1 2.0
2017-Sep-18 08:27N 47°15' W 003°16'2 3.9
2017-Sep-18 07:59N 47°14' W 003°14'2 4.6
2017-Sep-18 07:30N 47°13' W 003°11'2 4.6
2017-Sep-18 06:58N 47°13' W 003°07'2 4.6
2017-Sep-18 06:30N 47°12' W 003°04'2 3.7
2017-Sep-18 06:00N 47°12' W 003°02'2 5.1
2017-Sep-18 05:31N 47°11' W 002°58'3 5.4
2017-Sep-18 04:59N 47°10' W 002°54'3 5.4
2017-Sep-18 04:30N 47°10' W 002°50'3 5.2
2017-Sep-18 04:00N 47°09' W 002°47'3 4.9
2017-Sep-18 03:29N 47°08' W 002°43'2 4.5
2017-Sep-18 03:00N 47°09' W 002°40'2 4.4
2017-Sep-18 02:30N 47°09' W 002°37'2 4.2
2017-Sep-18 02:00N 47°09' W 002°34'2 4.4
2017-Sep-18 01:30N 47°09' W 002°30'2 4.4
2017-Sep-18 01:01N 47°09' W 002°27'2 4.3
2017-Sep-18 00:30N 47°09' W 002°24'2 3.2
2017-Sep-18 00:00N 47°09' W 002°22'1 1.0
2017-Sep-17 23:30N 47°09' W 002°21'0 0.7
2017-Sep-17 23:00N 47°10' W 002°21'0 0.7
2017-Sep-17 22:30N 47°10' W 002°20'0 0.7
2017-Sep-17 22:00N 47°10' W 002°20'1 3.0
2017-Sep-17 21:30N 47°11' W 002°19'3 5.9
2017-Sep-17 21:01N 47°14' W 002°16'3 6.7
2017-Sep-17 20:30N 47°16' W 002°12'4 8.2
2017-Sep-17 20:00N 47°18' W 002°07'4 8.8
2017-Sep-17 19:30N 47°18' W 002°01'5 9.1
2017-Sep-17 19:00N 47°17' W 001°54'5 9.0
2017-Sep-17 18:30N 47°14' W 001°50'5 9.0
2017-Sep-17 18:00N 47°12' W 001°43'4 8.1
2017-Sep-17 17:30N 47°12' W 001°37'2 4.9
2017-Sep-17 17:00N 47°12' W 001°34'0 0.0
2017-Sep-17 16:29N 47°12' W 001°34'0 0.0
2017-Sep-17 15:56N 47°12' W 001°34'0 0.0
2017-Sep-17 15:29N 47°12' W 001°34'0 0.0
2017-Sep-17 14:59N 47°12' W 001°34'0 0.0
2017-Sep-17 14:29N 47°12' W 001°34'0 0.0
2017-Sep-17 13:59N 47°12' W 001°34'0 0.0
2017-Sep-17 13:29N 47°12' W 001°34'0 0.0
2017-Sep-17 12:53N 47°12' W 001°34'0 0.0
2017-Sep-17 12:29N 47°12' W 001°34'0 0.0
2017-Sep-17 11:59N 47°12' W 001°34'0 0.0
2017-Sep-17 11:29N 47°12' W 001°34'0 0.0
2017-Sep-17 10:59N 47°12' W 001°34'0 0.0
2017-Sep-17 10:29N 47°12' W 001°34'0 0.0
2017-Sep-17 09:41N 47°12' W 001°34'0 0.0
2017-Sep-17 09:29N 47°12' W 001°34'0 0.0
2017-Sep-17 08:59N 47°12' W 001°34'0 0.0
2017-Sep-17 08:29N 47°12' W 001°34'0 0.0
2017-Sep-17 07:59N 47°12' W 001°34'0 0.0
2017-Sep-17 07:23N 47°12' W 001°34'0 0.0
2017-Sep-17 06:53N 47°12' W 001°34'0 0.0
2017-Sep-17 06:29N 47°12' W 001°34'0 0.0
2017-Sep-17 05:38N 47°12' W 001°34'0 0.0
2017-Sep-17 05:29N 47°12' W 001°34'0 0.0
2017-Sep-17 04:50N 47°12' W 001°34'0 0.0
2017-Sep-17 04:29N 47°12' W 001°34'0 0.0
2017-Sep-17 03:59N 47°12' W 001°34'0 0.0
2017-Sep-17 03:29N 47°12' W 001°34'0 0.0
2017-Sep-17 02:56N 47°12' W 001°34'0 0.0
2017-Sep-17 02:29N 47°12' W 001°34'0 0.0
2017-Sep-17 01:59N 47°12' W 001°34'0 0.0
2017-Sep-17 01:29N 47°12' W 001°34'0 0.0
2017-Sep-17 00:59N 47°12' W 001°34'0 0.0
2017-Sep-17 00:29N 47°12' W 001°34'0 0.0
2017-Sep-16 23:59N 47°12' W 001°34'0 0.0
2017-Sep-16 23:29N 47°12' W 001°34'0 0.0
2017-Sep-16 22:59N 47°12' W 001°34'0 0.0
2017-Sep-16 22:29N 47°12' W 001°34'0 0.0
2017-Sep-16 21:59N 47°12' W 001°34'0 0.0
2017-Sep-16 21:29N 47°12' W 001°34'0 0.0
2017-Sep-16 20:59N 47°12' W 001°34'0 0.0
2017-Sep-16 20:29N 47°12' W 001°34'0 0.0
2017-Sep-16 19:59N 47°12' W 001°34'0 0.0
2017-Sep-16 19:30N 47°12' W 001°34'0 0.0
2017-Sep-16 18:59N 47°12' W 001°34'0 0.0
2017-Sep-16 18:29N 47°12' W 001°34'0 0.0
2017-Sep-16 17:59N 47°12' W 001°34'0 0.0
2017-Sep-16 17:29N 47°12' W 001°34'0 0.0
2017-Sep-16 16:59N 47°12' W 001°34'0 0.0
2017-Sep-16 16:29N 47°12' W 001°34'0 0.0
2017-Sep-16 15:59N 47°12' W 001°34'0 0.0
2017-Sep-16 15:29N 47°12' W 001°34'0 0.0
2017-Sep-16 14:59N 47°12' W 001°34'0 0.0
2017-Sep-16 14:29N 47°12' W 001°34'0 0.0
2017-Sep-16 13:59N 47°12' W 001°34'0 0.0
2017-Sep-16 13:26N 47°12' W 001°34'0 0.0
2017-Sep-16 12:59N 47°12' W 001°34'0 0.0
2017-Sep-16 12:29N 47°12' W 001°34'0 0.0
2017-Sep-16 11:59N 47°12' W 001°34'0 0.0
2017-Sep-16 11:29N 47°12' W 001°34'0 0.0
2017-Sep-16 10:59N 47°12' W 001°34'0 0.0
2017-Sep-16 10:29N 47°12' W 001°34'0 0.0
2017-Sep-16 09:59N 47°12' W 001°34'0 0.0
2017-Sep-16 09:29N 47°12' W 001°34'0 0.0
2017-Sep-16 08:59N 47°12' W 001°34'0 0.0
2017-Sep-16 08:29N 47°12' W 001°34'0 0.0
2017-Sep-16 07:59N 47°12' W 001°34'0 0.0
2017-Sep-16 07:29N 47°12' W 001°34'0 0.0
2017-Sep-16 06:59N 47°12' W 001°34'0 0.0
2017-Sep-16 06:29N 47°12' W 001°34'0 0.0
2017-Sep-16 05:59N 47°12' W 001°34'0 0.0
2017-Sep-16 05:26N 47°12' W 001°34'0 0.0
2017-Sep-16 04:59N 47°12' W 001°34'0 0.0
2017-Sep-16 04:29N 47°12' W 001°34'0 0.0
2017-Sep-16 03:59N 47°12' W 001°34'0 0.0
2017-Sep-16 03:29N 47°12' W 001°34'0 0.0
2017-Sep-16 02:59N 47°12' W 001°34'0 0.0
2017-Sep-16 02:29N 47°12' W 001°34'0 0.0
2017-Sep-16 01:56N 47°12' W 001°34'0 0.0
2017-Sep-16 01:29N 47°12' W 001°34'0 0.0
2017-Sep-16 00:59N 47°12' W 001°34'0 0.0
2017-Sep-16 00:29N 47°12' W 001°34'0 0.0
2017-Sep-15 23:59N 47°12' W 001°34'0 0.0
2017-Sep-15 23:29N 47°12' W 001°34'0 0.0
2017-Sep-15 22:59N 47°12' W 001°34'0 0.0
2017-Sep-15 22:29N 47°12' W 001°34'0 0.0
2017-Sep-15 21:59N 47°12' W 001°34'0 0.0
2017-Sep-15 21:29N 47°12' W 001°34'0 0.0
2017-Sep-15 20:56N 47°12' W 001°34'0 0.0
2017-Sep-15 20:29N 47°12' W 001°34'0 0.0
2017-Sep-15 19:59N 47°12' W 001°34'0 0.0
2017-Sep-15 19:29N 47°12' W 001°34'0 0.0
2017-Sep-15 18:59N 47°12' W 001°34'0 0.0
2017-Sep-15 18:29N 47°12' W 001°34'0 0.0
2017-Sep-15 17:59N 47°12' W 001°34'0 0.0
2017-Sep-15 17:29N 47°12' W 001°34'0 0.0
2017-Sep-15 16:56N 47°12' W 001°34'0 0.0
2017-Sep-15 16:29N 47°12' W 001°34'0 0.0
2017-Sep-15 15:59N 47°12' W 001°34'0 0.0
2017-Sep-15 15:29N 47°12' W 001°34'0 0.0
2017-Sep-15 14:50N 47°12' W 001°34'0 0.0
2017-Sep-15 14:29N 47°12' W 001°34'0 0.0
2017-Sep-15 13:59N 47°12' W 001°34'0 0.0
2017-Sep-15 13:29N 47°12' W 001°34'0 0.0
2017-Sep-15 12:53N 47°12' W 001°34'0 0.0
2017-Sep-15 12:23N 47°12' W 001°34'0 0.0
2017-Sep-15 11:56N 47°12' W 001°34'0 0.0
2017-Sep-15 11:29N 47°12' W 001°34'0 0.0
2017-Sep-15 10:59N 47°12' W 001°34'0 0.0
2017-Sep-15 10:29N 47°12' W 001°34'0 0.0
2017-Sep-15 09:59N 47°12' W 001°34'0 0.0
2017-Sep-15 09:30N 47°12' W 001°34'3 5.5
2017-Sep-15 09:00N 47°12' W 001°38'4 8.8
2017-Sep-15 08:30N 47°12' W 001°44'5 9.2
2017-Sep-15 08:00N 47°14' W 001°50'4 8.4
2017-Sep-15 07:31N 47°17' W 001°55'4 8.3
2017-Sep-15 07:00N 47°18' W 002°01'4 7.7
2017-Sep-15 06:30N 47°18' W 002°07'4 7.2
2017-Sep-15 06:00N 47°16' W 002°11'3 5.4
2017-Sep-15 05:30N 47°14' W 002°15'3 6.0
2017-Sep-15 05:00N 47°12' W 002°17'4 7.1
2017-Sep-15 04:31N 47°09' W 002°20'4 7.0
2017-Sep-15 04:01N 47°06' W 002°22'3 6.6
2017-Sep-15 03:30N 47°03' W 002°25'4 6.5
2017-Sep-15 02:55N 46°59' W 002°27'10 5.8
2017-Sep-15 01:15N 46°50' W 002°22'2 6.4
2017-Sep-15 00:58N 46°49' W 002°21'3 6.3
2017-Sep-15 00:30N 46°46' W 002°18'3 6.3
2017-Sep-14 23:58N 46°43' W 002°16'3 6.0
2017-Sep-14 23:30N 46°42' W 002°12'3 5.7
2017-Sep-14 23:00N 46°40' W 002°09'3 5.7
2017-Sep-14 22:30N 46°38' W 002°06'3 5.8
2017-Sep-14 22:00N 46°36' W 002°03'3 6.0
2017-Sep-14 21:30N 46°34' W 001°60'3 5.7
2017-Sep-14 21:00N 46°32' W 001°57'3 5.5
2017-Sep-14 20:30N 46°30' W 001°54'3 5.5
2017-Sep-14 20:00N 46°28' W 001°52'3 5.2
2017-Sep-14 19:30N 46°26' W 001°49'3 5.0
2017-Sep-14 19:00N 46°25' W 001°46'2 4.9
2017-Sep-14 18:31N 46°23' W 001°43'2 4.8
2017-Sep-14 18:00N 46°22' W 001°40'2 4.6
2017-Sep-14 17:30N 46°21' W 001°37'2 4.4
2017-Sep-14 17:01N 46°20' W 001°35'3 4.8
2017-Sep-14 16:29N 46°18' W 001°32'3 5.0
2017-Sep-14 15:56N 46°16' W 001°29'3 6.0
2017-Sep-14 15:30N 46°15' W 001°26'3 5.8
2017-Sep-14 15:00N 46°15' W 001°22'3 6.2
2017-Sep-14 14:30N 46°14' W 001°17'3 6.1
2017-Sep-14 14:01N 46°11' W 001°15'3 5.0
2017-Sep-14 13:30N 46°09' W 001°14'2 3.0
2017-Sep-14 13:00N 46°08' W 001°12'1 2.7
2017-Sep-14 12:30N 46°09' W 001°11'1 2.4
2017-Sep-14 12:01N 46°09' W 001°09'0 0.0
2017-Sep-14 11:29N 46°09' W 001°09'0 0.0
2017-Sep-14 10:59N 46°09' W 001°09'0 0.0
2017-Sep-14 10:29N 46°09' W 001°09'0 0.0
2017-Sep-14 09:59N 46°09' W 001°09'0 0.0
2017-Sep-14 09:29N 46°09' W 001°09'0 0.0
2017-Sep-14 08:59N 46°09' W 001°09'0 0.0
2017-Sep-14 08:29N 46°09' W 001°09'0 0.0
2017-Sep-14 07:59N 46°09' W 001°09'0 0.0
2017-Sep-14 07:26N 46°09' W 001°09'0 0.0
2017-Sep-14 06:59N 46°09' W 001°09'0 0.0
2017-Sep-14 06:29N 46°09' W 001°09'0 0.0
2017-Sep-14 05:53N 46°09' W 001°09'0 0.0
2017-Sep-14 05:29N 46°09' W 001°09'0 0.0
2017-Sep-14 04:56N 46°09' W 001°09'0 0.0
2017-Sep-14 04:29N 46°09' W 001°09'0 0.0
2017-Sep-14 03:56N 46°09' W 001°09'0 0.0
2017-Sep-14 03:23N 46°09' W 001°09'0 0.0
2017-Sep-14 02:59N 46°09' W 001°09'0 0.0
2017-Sep-14 02:29N 46°09' W 001°09'0 0.0
2017-Sep-14 01:59N 46°09' W 001°09'0 0.0
2017-Sep-14 01:29N 46°09' W 001°09'0 0.0
2017-Sep-14 00:59N 46°09' W 001°09'0 0.0
2017-Sep-14 00:29N 46°09' W 001°09'0 0.0
2017-Sep-13 23:56N 46°09' W 001°09'0 0.0
2017-Sep-13 23:29N 46°09' W 001°09'0 0.0
2017-Sep-13 22:59N 46°09' W 001°09'0 0.0
2017-Sep-13 22:29N 46°09' W 001°09'0 0.0
2017-Sep-13 21:59N 46°09' W 001°09'0 0.0
2017-Sep-13 21:29N 46°09' W 001°09'0 0.0
2017-Sep-13 20:59N 46°09' W 001°09'0 0.0
2017-Sep-13 20:29N 46°09' W 001°09'0 0.0
2017-Sep-13 19:26N 46°09' W 001°09'0 0.0
2017-Sep-13 18:53N 46°09' W 001°09'0 0.0
2017-Sep-13 18:29N 46°09' W 001°09'0 0.0
2017-Sep-13 17:56N 46°09' W 001°09'0 0.0
2017-Sep-13 17:29N 46°09' W 001°09'0 0.0
2017-Sep-13 16:59N 46°09' W 001°09'0 0.0
2017-Sep-13 16:29N 46°09' W 001°09'0 0.0
2017-Sep-13 15:56N 46°09' W 001°09'0 0.0
2017-Sep-13 15:29N 46°09' W 001°09'0 0.0
2017-Sep-13 14:59N 46°09' W 001°09'0 0.0
2017-Sep-13 14:29N 46°09' W 001°09'0 0.0
2017-Sep-13 13:56N 46°09' W 001°09'0 0.0
2017-Sep-13 13:26N 46°09' W 001°09'0 0.0
2017-Sep-13 12:59N 46°09' W 001°09'0 0.0
2017-Sep-13 12:29N 46°09' W 001°09'0 0.0
2017-Sep-13 11:59N 46°09' W 001°09'0 0.0
2017-Sep-13 11:29N 46°09' W 001°09'0 0.0
2017-Sep-13 10:59N 46°09' W 001°09'0 0.0
2017-Sep-13 10:29N 46°09' W 001°09'0 0.0
2017-Sep-13 09:59N 46°09' W 001°09'0 0.0
2017-Sep-13 09:23N 46°09' W 001°09'0 0.0
2017-Sep-13 08:59N 46°09' W 001°09'0 0.0
2017-Sep-13 08:29N 46°09' W 001°09'0 0.0
2017-Sep-13 07:59N 46°09' W 001°09'0 0.0
2017-Sep-13 07:26N 46°09' W 001°09'0 0.0
2017-Sep-13 06:59N 46°09' W 001°09'0 0.0
2017-Sep-13 06:29N 46°09' W 001°09'0 0.0
2017-Sep-13 05:59N 46°09' W 001°09'0 0.0
2017-Sep-13 05:29N 46°09' W 001°09'0 0.0
2017-Sep-13 04:56N 46°09' W 001°09'0 0.0
2017-Sep-13 04:29N 46°09' W 001°09'0 0.0
2017-Sep-13 03:59N 46°09' W 001°09'0 0.0
2017-Sep-13 03:29N 46°09' W 001°09'0 0.0
2017-Sep-13 02:59N 46°09' W 001°09'0 0.0
2017-Sep-13 02:29N 46°09' W 001°09'0 0.0
2017-Sep-13 01:59N 46°09' W 001°09'0 0.0
2017-Sep-13 01:29N 46°09' W 001°09'0 0.0
2017-Sep-13 00:59N 46°09' W 001°09'0 0.0
2017-Sep-13 00:29N 46°09' W 001°09'0 0.0
2017-Sep-12 23:59N 46°09' W 001°09'0 0.0
2017-Sep-12 23:29N 46°09' W 001°09'0 0.0
2017-Sep-12 22:59N 46°09' W 001°09'0 0.0
2017-Sep-12 22:29N 46°09' W 001°09'0 0.0
2017-Sep-12 21:59N 46°09' W 001°09'0 0.0
2017-Sep-12 21:29N 46°09' W 001°09'0 0.0
2017-Sep-12 20:59N 46°09' W 001°09'0 0.0
2017-Sep-12 20:26N 46°09' W 001°09'0 0.0
2017-Sep-12 19:59N 46°09' W 001°09'0 0.0
2017-Sep-12 19:29N 46°09' W 001°09'0 0.0
2017-Sep-12 18:59N 46°09' W 001°09'0 0.0
2017-Sep-12 18:29N 46°09' W 001°09'0 0.0
2017-Sep-12 17:59N 46°09' W 001°09'0 0.0
2017-Sep-12 17:29N 46°09' W 001°09'0 0.0
2017-Sep-12 16:59N 46°09' W 001°09'0 0.0
2017-Sep-12 16:29N 46°09' W 001°09'0 0.0
2017-Sep-12 15:59N 46°09' W 001°09'0 0.0
2017-Sep-12 15:29N 46°09' W 001°09'0 0.0
2017-Sep-12 14:59N 46°09' W 001°09'0 0.0
2017-Sep-12 14:29N 46°09' W 001°09'0 0.0
2017-Sep-12 13:59N 46°09' W 001°09'0 0.0
2017-Sep-12 13:29N 46°09' W 001°09'0 0.0
2017-Sep-12 12:59N 46°09' W 001°09'0 0.0
2017-Sep-12 12:29N 46°09' W 001°09'0 0.0
2017-Sep-12 11:59N 46°09' W 001°09'0 0.0
2017-Sep-12 11:29N 46°09' W 001°09'0 0.0
2017-Sep-12 10:59N 46°09' W 001°09'0 0.0
2017-Sep-12 10:29N 46°09' W 001°09'0 0.0
2017-Sep-12 09:59N 46°09' W 001°09'0 0.0
2017-Sep-12 09:29N 46°09' W 001°09'0 0.0
2017-Sep-12 08:59N 46°09' W 001°09'0 0.0
2017-Sep-12 08:30N 46°09' W 001°09'0 0.2
2017-Sep-12 08:00N 46°09' W 001°09'3 6.4
2017-Sep-12 07:30N 46°08' W 001°13'3 6.7
2017-Sep-12 07:00N 46°07' W 001°18'4 7.1
2017-Sep-12 06:31N 46°08' W 001°23'4 7.6
2017-Sep-12 06:00N 46°08' W 001°29'4 7.8
2017-Sep-12 05:31N 46°09' W 001°34'4 7.8
2017-Sep-12 04:57N 46°09' W 001°40'4 7.4
2017-Sep-12 04:27N 46°10' W 001°46'6 2.4
2017-Sep-12 02:06N 46°05' W 001°41'  
Track history (hours):
 
Tides and Currents Weather Stations Pressure Air Temp Water Temp Dewpoint Dewpoint Depression Visibility Wind Speed Wind Dir Waves Ship Positions

Shtandart

Re-creation of early 1700's Russian naval frigate.

Last reported at 2017-Sep-22 02:00 UTC. Time now 2017-Sep-22 17:02 UTC.
Position N 49°25' E 000°14'.

Length 34 m; draft 3 m.

Type: Sailing vessel. MMSI: 273452840.

Date/timePositionNaut miles runAvg speedWind from/ knotsBaromVisibWave heightAir tempDewpointWater temp
2017-Sep-22 02:00N 49°25' E 000°14'0 0.0
2017-Sep-22 01:30N 49°25' E 000°14'0 0.0
2017-Sep-22 01:00N 49°25' E 000°14'0 0.0
2017-Sep-22 00:30N 49°25' E 000°14'0 0.0
2017-Sep-22 00:00N 49°25' E 000°14'0 0.0
2017-Sep-21 23:30N 49°25' E 000°14'0 0.0
2017-Sep-21 23:00N 49°25' E 000°14'0 0.0
2017-Sep-21 22:30N 49°25' E 000°14'0 0.0
2017-Sep-21 22:00N 49°25' E 000°14'1 2.4
2017-Sep-21 21:30N 49°26' E 000°13'3 6.0
2017-Sep-21 21:00N 49°26' E 000°08'3 5.8
2017-Sep-21 20:30N 49°27' E 000°04'2 4.7
2017-Sep-21 20:00N 49°25' E 000°01'1 1.2
2017-Sep-21 19:28N 49°25' E 000°01'0 0.1
2017-Sep-21 18:58N 49°25' E 000°01'0 0.1
2017-Sep-21 18:28N 49°25' E 000°01'0 0.2
2017-Sep-21 17:58N 49°25' E 000°01'0 0.0
2017-Sep-21 17:28N 49°25' E 000°01'0 0.0
2017-Sep-21 16:58N 49°25' E 000°01'0 0.1
2017-Sep-21 16:28N 49°25' E 000°01'0 0.1
2017-Sep-21 15:58N 49°25' E 000°01'0 0.0
2017-Sep-21 15:28N 49°25' E 000°01'0 0.1
2017-Sep-21 14:58N 49°25' E 000°01'0 0.0
2017-Sep-21 14:28N 49°25' E 000°01'0 0.0
2017-Sep-21 13:58N 49°25' E 000°01'0 0.0
2017-Sep-21 13:28N 49°25' E 000°01'0 0.0
2017-Sep-21 12:58N 49°25' E 000°01'0 0.0
2017-Sep-21 12:28N 49°25' E 000°01'0 0.0
2017-Sep-21 11:58N 49°25' E 000°01'0 0.0
2017-Sep-21 11:28N 49°25' E 000°01'0 0.1
2017-Sep-21 11:00N 49°25' E 000°01'2 3.7
2017-Sep-21 10:30N 49°26' W 000°01'3 5.2
2017-Sep-21 10:00N 49°28' W 000°04'2 4.2
2017-Sep-21 09:30N 49°29' W 000°06'3 6.3
2017-Sep-21 09:00N 49°32' W 000°09'36 4.6
2017-Sep-21 01:11N 49°42' W 001°02'0 1.7
2017-Sep-21 00:55N 49°42' W 001°03'1 1.5
2017-Sep-21 00:25N 49°42' W 001°04'1 2.6
2017-Sep-21 00:00N 49°43' W 001°05'2 3.4
2017-Sep-20 23:30N 49°44' W 001°08'2 4.7
2017-Sep-20 23:00N 49°44' W 001°11'3 6.4
2017-Sep-20 22:30N 49°46' W 001°16'3 6.8
2017-Sep-20 22:00N 49°47' W 001°21'3 6.8
2017-Sep-20 21:31N 49°47' W 001°26'3 5.9
2017-Sep-20 21:00N 49°47' W 001°30'4 7.6
2017-Sep-20 20:30N 49°48' W 001°36'4 8.4
2017-Sep-20 20:00N 49°49' W 001°43'4 7.3
2017-Sep-20 19:30N 49°49' W 001°48'4 8.4
2017-Sep-20 19:00N 49°49' W 001°55'19 7.3
2017-Sep-20 16:22N 49°45' W 002°24'2 4.6
2017-Sep-20 15:55N 49°44' W 002°27'1 2.4
2017-Sep-20 15:24N 49°43' W 002°28'3 2.1
2017-Sep-20 13:53N 49°42' W 002°33'7 3.7
2017-Sep-20 12:00N 49°38' W 002°42'11 5.4
2017-Sep-20 10:00N 49°32' W 002°55'5 6.2
2017-Sep-20 09:16N 49°29' W 003°00'2 5.8
2017-Sep-20 08:58N 49°28' W 003°02'3 5.9
2017-Sep-20 08:29N 49°26' W 003°06'3 6.0
2017-Sep-20 08:00N 49°24' W 003°09'3 6.0
2017-Sep-20 07:27N 49°22' W 003°13'3 6.2
2017-Sep-20 07:00N 49°21' W 003°17'3 6.6
2017-Sep-20 06:30N 49°19' W 003°21'4 6.3
2017-Sep-20 05:56N 49°17' W 003°26'3 6.3
2017-Sep-20 05:30N 49°15' W 003°29'3 6.4
2017-Sep-20 05:00N 49°14' W 003°33'4 6.5
2017-Sep-20 04:28N 49°12' W 003°38'3 6.6
2017-Sep-20 03:56N 49°10' W 003°42'9 7.0
2017-Sep-20 02:36N 49°05' W 003°55'1 6.6
2017-Sep-20 02:30N 49°05' W 003°56'4 5.8
2017-Sep-20 01:43N 49°03' W 004°01'2 5.1
2017-Sep-20 01:25N 49°02' W 004°03'18 3.1
2017-Sep-19 19:35N 48°51' W 004°26'0 2.6
2017-Sep-19 19:24N 48°51' W 004°27'1 2.8
2017-Sep-19 19:00N 48°50' W 004°28'2 3.3
2017-Sep-19 18:29N 48°49' W 004°30'2 3.5
2017-Sep-19 18:00N 48°48' W 004°32'2 4.2
2017-Sep-19 17:29N 48°47' W 004°35'2 4.8
2017-Sep-19 17:00N 48°45' W 004°37'2 4.5
2017-Sep-19 16:30N 48°44' W 004°40'2 4.8
2017-Sep-19 16:01N 48°42' W 004°42'2 4.8
2017-Sep-19 15:30N 48°40' W 004°44'2 4.7
2017-Sep-19 15:00N 48°38' W 004°47'3 5.2
2017-Sep-19 14:30N 48°36' W 004°49'3 6.1
2017-Sep-19 14:00N 48°33' W 004°51'4 7.0
2017-Sep-19 13:30N 48°30' W 004°52'3 5.3
2017-Sep-19 13:00N 48°27' W 004°51'3 6.1
2017-Sep-19 12:30N 48°24' W 004°49'3 6.8
2017-Sep-19 12:00N 48°21' W 004°49'3 6.7
2017-Sep-19 11:30N 48°18' W 004°48'2 5.0
2017-Sep-19 11:01N 48°15' W 004°48'2 5.0
2017-Sep-19 10:31N 48°13' W 004°48'3 5.0
2017-Sep-19 10:01N 48°10' W 004°47'3 5.0
2017-Sep-19 09:30N 48°08' W 004°47'2 4.9
2017-Sep-19 09:00N 48°05' W 004°47'2 4.6
2017-Sep-19 08:31N 48°03' W 004°46'2 3.7
2017-Sep-19 08:00N 48°01' W 004°46'2 4.2
2017-Sep-19 07:30N 47°60' W 004°43'2 4.1
2017-Sep-19 07:00N 47°58' W 004°41'2 3.9
2017-Sep-19 06:30N 47°57' W 004°39'2 3.6
2017-Sep-19 06:00N 47°55' W 004°38'2 3.5
2017-Sep-19 05:30N 47°54' W 004°36'2 3.4
2017-Sep-19 05:00N 47°53' W 004°34'2 3.2
2017-Sep-19 04:30N 47°52' W 004°33'2 3.1
2017-Sep-19 03:59N 47°50' W 004°31'1 3.0
2017-Sep-19 03:30N 47°49' W 004°30'12 2.9
2017-Sep-18 23:29N 47°42' W 004°17'2 3.7
2017-Sep-18 23:00N 47°41' W 004°15'3 3.4
2017-Sep-18 22:08N 47°40' W 004°11'1 3.4
2017-Sep-18 21:52N 47°39' W 004°09'1 3.3
2017-Sep-18 21:30N 47°39' W 004°08'2 3.1
2017-Sep-18 20:54N 47°38' W 004°05'1 3.0
2017-Sep-18 20:30N 47°38' W 004°03'2 3.8
2017-Sep-18 20:00N 47°37' W 004°01'2 4.2
2017-Sep-18 19:30N 47°36' W 003°58'2 4.5
2017-Sep-18 19:00N 47°36' W 003°55'2 4.3
2017-Sep-18 18:30N 47°35' W 003°52'2 3.8
2017-Sep-18 18:00N 47°35' W 003°49'2 4.3
2017-Sep-18 17:30N 47°34' W 003°46'2 3.8
2017-Sep-18 17:01N 47°32' W 003°45'2 3.4
2017-Sep-18 16:30N 47°31' W 003°43'2 3.5
2017-Sep-18 15:54N 47°29' W 003°42'1 3.6
2017-Sep-18 15:30N 47°28' W 003°40'2 3.3
2017-Sep-18 15:00N 47°26' W 003°39'2 3.7
2017-Sep-18 14:30N 47°25' W 003°38'2 3.8
2017-Sep-18 14:00N 47°23' W 003°36'1 2.9
2017-Sep-18 13:30N 47°22' W 003°35'2 3.5
2017-Sep-18 13:00N 47°21' W 003°33'2 3.6
2017-Sep-18 12:30N 47°20' W 003°31'2 3.6
2017-Sep-18 12:00N 47°18' W 003°29'2 3.9
2017-Sep-18 11:30N 47°17' W 003°27'2 4.1
2017-Sep-18 11:00N 47°16' W 003°25'2 2.9
2017-Sep-18 10:29N 47°15' W 003°23'1 1.8
2017-Sep-18 09:57N 47°15' W 003°21'1 2.5
2017-Sep-18 09:30N 47°15' W 003°20'1 2.4
2017-Sep-18 08:58N 47°15' W 003°18'1 2.0
2017-Sep-18 08:27N 47°15' W 003°16'2 3.9
2017-Sep-18 07:59N 47°14' W 003°14'2 4.6
2017-Sep-18 07:30N 47°13' W 003°11'2 4.6
2017-Sep-18 06:58N 47°13' W 003°07'2 4.6
2017-Sep-18 06:30N 47°12' W 003°04'2 3.7
2017-Sep-18 06:00N 47°12' W 003°02'2 5.1
2017-Sep-18 05:31N 47°11' W 002°58'3 5.4
2017-Sep-18 04:59N 47°10' W 002°54'3 5.4
2017-Sep-18 04:30N 47°10' W 002°50'3 5.2
2017-Sep-18 04:00N 47°09' W 002°47'3 4.9
2017-Sep-18 03:29N 47°08' W 002°43'2 4.5
2017-Sep-18 03:00N 47°09' W 002°40'2 4.4
2017-Sep-18 02:30N 47°09' W 002°37'2 4.2
2017-Sep-18 02:00N 47°09' W 002°34'2 4.4
2017-Sep-18 01:30N 47°09' W 002°30'2 4.4
2017-Sep-18 01:01N 47°09' W 002°27'2 4.3
2017-Sep-18 00:30N 47°09' W 002°24'2 3.2
2017-Sep-18 00:00N 47°09' W 002°22'1 1.0
2017-Sep-17 23:30N 47°09' W 002°21'0 0.7
2017-Sep-17 23:00N 47°10' W 002°21'0 0.7
2017-Sep-17 22:30N 47°10' W 002°20'0 0.7
2017-Sep-17 22:00N 47°10' W 002°20'1 3.0
2017-Sep-17 21:30N 47°11' W 002°19'3 5.9
2017-Sep-17 21:01N 47°14' W 002°16'3 6.7
2017-Sep-17 20:30N 47°16' W 002°12'4 8.2
2017-Sep-17 20:00N 47°18' W 002°07'4 8.8
2017-Sep-17 19:30N 47°18' W 002°01'5 9.1
2017-Sep-17 19:00N 47°17' W 001°54'5 9.0
2017-Sep-17 18:30N 47°14' W 001°50'5 9.0
2017-Sep-17 18:00N 47°12' W 001°43'4 8.1
2017-Sep-17 17:30N 47°12' W 001°37'2 4.9
2017-Sep-17 17:00N 47°12' W 001°34'0 0.0
2017-Sep-17 16:29N 47°12' W 001°34'0 0.0
2017-Sep-17 15:56N 47°12' W 001°34'0 0.0
2017-Sep-17 15:29N 47°12' W 001°34'0 0.0
2017-Sep-17 14:59N 47°12' W 001°34'0 0.0
2017-Sep-17 14:29N 47°12' W 001°34'0 0.0
2017-Sep-17 13:59N 47°12' W 001°34'0 0.0
2017-Sep-17 13:29N 47°12' W 001°34'0 0.0
2017-Sep-17 12:53N 47°12' W 001°34'0 0.0
2017-Sep-17 12:29N 47°12' W 001°34'0 0.0
2017-Sep-17 11:59N 47°12' W 001°34'0 0.0
2017-Sep-17 11:29N 47°12' W 001°34'0 0.0
2017-Sep-17 10:59N 47°12' W 001°34'0 0.0
2017-Sep-17 10:29N 47°12' W 001°34'0 0.0
2017-Sep-17 09:41N 47°12' W 001°34'0 0.0
2017-Sep-17 09:29N 47°12' W 001°34'0 0.0
2017-Sep-17 08:59N 47°12' W 001°34'0 0.0
2017-Sep-17 08:29N 47°12' W 001°34'0 0.0
2017-Sep-17 07:59N 47°12' W 001°34'0 0.0
2017-Sep-17 07:23N 47°12' W 001°34'0 0.0
2017-Sep-17 06:53N 47°12' W 001°34'0 0.0
2017-Sep-17 06:29N 47°12' W 001°34'0 0.0
2017-Sep-17 05:38N 47°12' W 001°34'0 0.0
2017-Sep-17 05:29N 47°12' W 001°34'0 0.0
2017-Sep-17 04:50N 47°12' W 001°34'0 0.0
2017-Sep-17 04:29N 47°12' W 001°34'0 0.0
2017-Sep-17 03:59N 47°12' W 001°34'0 0.0
2017-Sep-17 03:29N 47°12' W 001°34'0 0.0
2017-Sep-17 02:56N 47°12' W 001°34'0 0.0
2017-Sep-17 02:29N 47°12' W 001°34'0 0.0
2017-Sep-17 01:59N 47°12' W 001°34'0 0.0
2017-Sep-17 01:29N 47°12' W 001°34'0 0.0
2017-Sep-17 00:59N 47°12' W 001°34'0 0.0
2017-Sep-17 00:29N 47°12' W 001°34'0 0.0
2017-Sep-16 23:59N 47°12' W 001°34'0 0.0
2017-Sep-16 23:29N 47°12' W 001°34'0 0.0
2017-Sep-16 22:59N 47°12' W 001°34'0 0.0
2017-Sep-16 22:29N 47°12' W 001°34'0 0.0
2017-Sep-16 21:59N 47°12' W 001°34'0 0.0
2017-Sep-16 21:29N 47°12' W 001°34'0 0.0
2017-Sep-16 20:59N 47°12' W 001°34'0 0.0
2017-Sep-16 20:29N 47°12' W 001°34'0 0.0
2017-Sep-16 19:59N 47°12' W 001°34'0 0.0
2017-Sep-16 19:30N 47°12' W 001°34'0 0.0
2017-Sep-16 18:59N 47°12' W 001°34'0 0.0
2017-Sep-16 18:29N 47°12' W 001°34'0 0.0
2017-Sep-16 17:59N 47°12' W 001°34'0 0.0
2017-Sep-16 17:29N 47°12' W 001°34'0 0.0
2017-Sep-16 16:59N 47°12' W 001°34'0 0.0
2017-Sep-16 16:29N 47°12' W 001°34'0 0.0
2017-Sep-16 15:59N 47°12' W 001°34'0 0.0
2017-Sep-16 15:29N 47°12' W 001°34'0 0.0
2017-Sep-16 14:59N 47°12' W 001°34'0 0.0
2017-Sep-16 14:29N 47°12' W 001°34'0 0.0
2017-Sep-16 13:59N 47°12' W 001°34'0 0.0
2017-Sep-16 13:26N 47°12' W 001°34'0 0.0
2017-Sep-16 12:59N 47°12' W 001°34'0 0.0
2017-Sep-16 12:29N 47°12' W 001°34'0 0.0
2017-Sep-16 11:59N 47°12' W 001°34'0 0.0
2017-Sep-16 11:29N 47°12' W 001°34'0 0.0
2017-Sep-16 10:59N 47°12' W 001°34'0 0.0
2017-Sep-16 10:29N 47°12' W 001°34'0 0.0
2017-Sep-16 09:59N 47°12' W 001°34'0 0.0
2017-Sep-16 09:29N 47°12' W 001°34'0 0.0
2017-Sep-16 08:59N 47°12' W 001°34'0 0.0
2017-Sep-16 08:29N 47°12' W 001°34'0 0.0
2017-Sep-16 07:59N 47°12' W 001°34'0 0.0
2017-Sep-16 07:29N 47°12' W 001°34'0 0.0
2017-Sep-16 06:59N 47°12' W 001°34'0 0.0
2017-Sep-16 06:29N 47°12' W 001°34'0 0.0
2017-Sep-16 05:59N 47°12' W 001°34'0 0.0
2017-Sep-16 05:26N 47°12' W 001°34'0 0.0
2017-Sep-16 04:59N 47°12' W 001°34'0 0.0
2017-Sep-16 04:29N 47°12' W 001°34'0 0.0
2017-Sep-16 03:59N 47°12' W 001°34'0 0.0
2017-Sep-16 03:29N 47°12' W 001°34'0 0.0
2017-Sep-16 02:59N 47°12' W 001°34'0 0.0
2017-Sep-16 02:29N 47°12' W 001°34'0 0.0
2017-Sep-16 01:56N 47°12' W 001°34'0 0.0
2017-Sep-16 01:29N 47°12' W 001°34'0 0.0
2017-Sep-16 00:59N 47°12' W 001°34'0 0.0
2017-Sep-16 00:29N 47°12' W 001°34'0 0.0
2017-Sep-15 23:59N 47°12' W 001°34'0 0.0
2017-Sep-15 23:29N 47°12' W 001°34'0 0.0
2017-Sep-15 22:59N 47°12' W 001°34'0 0.0
2017-Sep-15 22:29N 47°12' W 001°34'0 0.0
2017-Sep-15 21:59N 47°12' W 001°34'0 0.0
2017-Sep-15 21:29N 47°12' W 001°34'0 0.0
2017-Sep-15 20:56N 47°12' W 001°34'0 0.0
2017-Sep-15 20:29N 47°12' W 001°34'0 0.0
2017-Sep-15 19:59N 47°12' W 001°34'0 0.0
2017-Sep-15 19:29N 47°12' W 001°34'0 0.0
2017-Sep-15 18:59N 47°12' W 001°34'0 0.0
2017-Sep-15 18:29N 47°12' W 001°34'0 0.0
2017-Sep-15 17:59N 47°12' W 001°34'0 0.0
2017-Sep-15 17:29N 47°12' W 001°34'0 0.0
2017-Sep-15 16:56N 47°12' W 001°34'0 0.0
2017-Sep-15 16:29N 47°12' W 001°34'0 0.0
2017-Sep-15 15:59N 47°12' W 001°34'0 0.0
2017-Sep-15 15:29N 47°12' W 001°34'0 0.0
2017-Sep-15 14:50N 47°12' W 001°34'0 0.0
2017-Sep-15 14:29N 47°12' W 001°34'0 0.0
2017-Sep-15 13:59N 47°12' W 001°34'0 0.0
2017-Sep-15 13:29N 47°12' W 001°34'0 0.0
2017-Sep-15 12:53N 47°12' W 001°34'0 0.0
2017-Sep-15 12:23N 47°12' W 001°34'0 0.0
2017-Sep-15 11:56N 47°12' W 001°34'0 0.0
2017-Sep-15 11:29N 47°12' W 001°34'0 0.0
2017-Sep-15 10:59N 47°12' W 001°34'0 0.0
2017-Sep-15 10:29N 47°12' W 001°34'0 0.0
2017-Sep-15 09:59N 47°12' W 001°34'0 0.0
2017-Sep-15 09:30N 47°12' W 001°34'3 5.5
2017-Sep-15 09:00N 47°12' W 001°38'4 8.8
2017-Sep-15 08:30N 47°12' W 001°44'5 9.2
2017-Sep-15 08:00N 47°14' W 001°50'4 8.4
2017-Sep-15 07:31N 47°17' W 001°55'4 8.3
2017-Sep-15 07:00N 47°18' W 002°01'4 7.7
2017-Sep-15 06:30N 47°18' W 002°07'4 7.2
2017-Sep-15 06:00N 47°16' W 002°11'3 5.4
2017-Sep-15 05:30N 47°14' W 002°15'3 6.0
2017-Sep-15 05:00N 47°12' W 002°17'4 7.1
2017-Sep-15 04:31N 47°09' W 002°20'4 7.0
2017-Sep-15 04:01N 47°06' W 002°22'3 6.6
2017-Sep-15 03:30N 47°03' W 002°25'4 6.5
2017-Sep-15 02:55N 46°59' W 002°27'10 5.8
2017-Sep-15 01:15N 46°50' W 002°22'2 6.4
2017-Sep-15 00:58N 46°49' W 002°21'3 6.3
2017-Sep-15 00:30N 46°46' W 002°18'3 6.3
2017-Sep-14 23:58N 46°43' W 002°16'3 6.0
2017-Sep-14 23:30N 46°42' W 002°12'3 5.7
2017-Sep-14 23:00N 46°40' W 002°09'3 5.7
2017-Sep-14 22:30N 46°38' W 002°06'3 5.8
2017-Sep-14 22:00N 46°36' W 002°03'3 6.0
2017-Sep-14 21:30N 46°34' W 001°60'3 5.7
2017-Sep-14 21:00N 46°32' W 001°57'3 5.5
2017-Sep-14 20:30N 46°30' W 001°54'3 5.5
2017-Sep-14 20:00N 46°28' W 001°52'3 5.2
2017-Sep-14 19:30N 46°26' W 001°49'3 5.0
2017-Sep-14 19:00N 46°25' W 001°46'2 4.9
2017-Sep-14 18:31N 46°23' W 001°43'2 4.8
2017-Sep-14 18:00N 46°22' W 001°40'2 4.6
2017-Sep-14 17:30N 46°21' W 001°37'2 4.4
2017-Sep-14 17:01N 46°20' W 001°35'3 4.8
2017-Sep-14 16:29N 46°18' W 001°32'3 5.0
2017-Sep-14 15:56N 46°16' W 001°29'3 6.0
2017-Sep-14 15:30N 46°15' W 001°26'3 5.8
2017-Sep-14 15:00N 46°15' W 001°22'3 6.2
2017-Sep-14 14:30N 46°14' W 001°17'3 6.1
2017-Sep-14 14:01N 46°11' W 001°15'3 5.0
2017-Sep-14 13:30N 46°09' W 001°14'2 3.0
2017-Sep-14 13:00N 46°08' W 001°12'1 2.7
2017-Sep-14 12:30N 46°09' W 001°11'1 2.4
2017-Sep-14 12:01N 46°09' W 001°09'0 0.0
2017-Sep-14 11:29N 46°09' W 001°09'0 0.0
2017-Sep-14 10:59N 46°09' W 001°09'0 0.0
2017-Sep-14 10:29N 46°09' W 001°09'0 0.0
2017-Sep-14 09:59N 46°09' W 001°09'0 0.0
2017-Sep-14 09:29N 46°09' W 001°09'0 0.0
2017-Sep-14 08:59N 46°09' W 001°09'0 0.0
2017-Sep-14 08:29N 46°09' W 001°09'0 0.0
2017-Sep-14 07:59N 46°09' W 001°09'0 0.0
2017-Sep-14 07:26N 46°09' W 001°09'0 0.0
2017-Sep-14 06:59N 46°09' W 001°09'0 0.0
2017-Sep-14 06:29N 46°09' W 001°09'0 0.0
2017-Sep-14 05:53N 46°09' W 001°09'0 0.0
2017-Sep-14 05:29N 46°09' W 001°09'0 0.0
2017-Sep-14 04:56N 46°09' W 001°09'0 0.0
2017-Sep-14 04:29N 46°09' W 001°09'0 0.0
2017-Sep-14 03:56N 46°09' W 001°09'0 0.0
2017-Sep-14 03:23N 46°09' W 001°09'0 0.0
2017-Sep-14 02:59N 46°09' W 001°09'0 0.0
2017-Sep-14 02:29N 46°09' W 001°09'0 0.0
2017-Sep-14 01:59N 46°09' W 001°09'0 0.0
2017-Sep-14 01:29N 46°09' W 001°09'0 0.0
2017-Sep-14 00:59N 46°09' W 001°09'0 0.0
2017-Sep-14 00:29N 46°09' W 001°09'0 0.0
2017-Sep-13 23:56N 46°09' W 001°09'0 0.0
2017-Sep-13 23:29N 46°09' W 001°09'0 0.0
2017-Sep-13 22:59N 46°09' W 001°09'0 0.0
2017-Sep-13 22:29N 46°09' W 001°09'0 0.0
2017-Sep-13 21:59N 46°09' W 001°09'0 0.0
2017-Sep-13 21:29N 46°09' W 001°09'0 0.0
2017-Sep-13 20:59N 46°09' W 001°09'0 0.0
2017-Sep-13 20:29N 46°09' W 001°09'0 0.0
2017-Sep-13 19:26N 46°09' W 001°09'0 0.0
2017-Sep-13 18:53N 46°09' W 001°09'0 0.0
2017-Sep-13 18:29N 46°09' W 001°09'0 0.0
2017-Sep-13 17:56N 46°09' W 001°09'0 0.0
2017-Sep-13 17:29N 46°09' W 001°09'0 0.0
2017-Sep-13 16:59N 46°09' W 001°09'0 0.0
2017-Sep-13 16:29N 46°09' W 001°09'0 0.0
2017-Sep-13 15:56N 46°09' W 001°09'0 0.0
2017-Sep-13 15:29N 46°09' W 001°09'0 0.0
2017-Sep-13 14:59N 46°09' W 001°09'0 0.0
2017-Sep-13 14:29N 46°09' W 001°09'0 0.0
2017-Sep-13 13:56N 46°09' W 001°09'0 0.0
2017-Sep-13 13:26N 46°09' W 001°09'0 0.0
2017-Sep-13 12:59N 46°09' W 001°09'0 0.0
2017-Sep-13 12:29N 46°09' W 001°09'0 0.0
2017-Sep-13 11:59N 46°09' W 001°09'0 0.0
2017-Sep-13 11:29N 46°09' W 001°09'0 0.0
2017-Sep-13 10:59N 46°09' W 001°09'0 0.0
2017-Sep-13 10:29N 46°09' W 001°09'0 0.0
2017-Sep-13 09:59N 46°09' W 001°09'0 0.0
2017-Sep-13 09:23N 46°09' W 001°09'0 0.0
2017-Sep-13 08:59N 46°09' W 001°09'0 0.0
2017-Sep-13 08:29N 46°09' W 001°09'0 0.0
2017-Sep-13 07:59N 46°09' W 001°09'0 0.0
2017-Sep-13 07:26N 46°09' W 001°09'0 0.0
2017-Sep-13 06:59N 46°09' W 001°09'0 0.0
2017-Sep-13 06:29N 46°09' W 001°09'0 0.0
2017-Sep-13 05:59N 46°09' W 001°09'0 0.0
2017-Sep-13 05:29N 46°09' W 001°09'0 0.0
2017-Sep-13 04:56N 46°09' W 001°09'0 0.0
2017-Sep-13 04:29N 46°09' W 001°09'0 0.0
2017-Sep-13 03:59N 46°09' W 001°09'0 0.0
2017-Sep-13 03:29N 46°09' W 001°09'0 0.0
2017-Sep-13 02:59N 46°09' W 001°09'0 0.0
2017-Sep-13 02:29N 46°09' W 001°09'0 0.0
2017-Sep-13 01:59N 46°09' W 001°09'0 0.0
2017-Sep-13 01:29N 46°09' W 001°09'0 0.0
2017-Sep-13 00:59N 46°09' W 001°09'0 0.0
2017-Sep-13 00:29N 46°09' W 001°09'0 0.0
2017-Sep-12 23:59N 46°09' W 001°09'0 0.0
2017-Sep-12 23:29N 46°09' W 001°09'0 0.0
2017-Sep-12 22:59N 46°09' W 001°09'0 0.0
2017-Sep-12 22:29N 46°09' W 001°09'0 0.0
2017-Sep-12 21:59N 46°09' W 001°09'0 0.0
2017-Sep-12 21:29N 46°09' W 001°09'0 0.0
2017-Sep-12 20:59N 46°09' W 001°09'0 0.0
2017-Sep-12 20:26N 46°09' W 001°09'0 0.0
2017-Sep-12 19:59N 46°09' W 001°09'0 0.0
2017-Sep-12 19:29N 46°09' W 001°09'0 0.0
2017-Sep-12 18:59N 46°09' W 001°09'0 0.0
2017-Sep-12 18:29N 46°09' W 001°09'0 0.0
2017-Sep-12 17:59N 46°09' W 001°09'0 0.0
2017-Sep-12 17:29N 46°09' W 001°09'0 0.0
2017-Sep-12 16:59N 46°09' W 001°09'0 0.0
2017-Sep-12 16:29N 46°09' W 001°09'0 0.0
2017-Sep-12 15:59N 46°09' W 001°09'0 0.0
2017-Sep-12 15:29N 46°09' W 001°09'0 0.0
2017-Sep-12 14:59N 46°09' W 001°09'0 0.0
2017-Sep-12 14:29N 46°09' W 001°09'0 0.0
2017-Sep-12 13:59N 46°09' W 001°09'0 0.0
2017-Sep-12 13:29N 46°09' W 001°09'0 0.0
2017-Sep-12 12:59N 46°09' W 001°09'0 0.0
2017-Sep-12 12:29N 46°09' W 001°09'0 0.0
2017-Sep-12 11:59N 46°09' W 001°09'0 0.0
2017-Sep-12 11:29N 46°09' W 001°09'0 0.0
2017-Sep-12 10:59N 46°09' W 001°09'0 0.0
2017-Sep-12 10:29N 46°09' W 001°09'0 0.0
2017-Sep-12 09:59N 46°09' W 001°09'0 0.0
2017-Sep-12 09:29N 46°09' W 001°09'0 0.0
2017-Sep-12 08:59N 46°09' W 001°09'0 0.0
2017-Sep-12 08:30N 46°09' W 001°09'0 0.2
2017-Sep-12 08:00N 46°09' W 001°09'3 6.4
2017-Sep-12 07:30N 46°08' W 001°13'3 6.7
2017-Sep-12 07:00N 46°07' W 001°18'4 7.1
2017-Sep-12 06:31N 46°08' W 001°23'4 7.6
2017-Sep-12 06:00N 46°08' W 001°29'4 7.8
2017-Sep-12 05:31N 46°09' W 001°34'4 7.8
2017-Sep-12 04:57N 46°09' W 001°40'4 7.4
2017-Sep-12 04:27N 46°10' W 001°46'6 2.4
2017-Sep-12 02:06N 46°05' W 001°41'  

Dump ship's entire track history